createdAt,value
2019-01-16T00:00:46.573Z,14.53
2019-01-16T00:03:35.893Z,18.20
2019-01-16T00:06:23.709Z,15.03
2019-01-16T00:09:14.232Z,10.95
2019-01-16T00:12:03.452Z,13.68
2019-01-16T00:14:52.635Z,11.57
2019-01-16T00:17:41.907Z,12.17
2019-01-16T00:20:31.120Z,18.65
2019-01-16T00:23:29.827Z,15.28
2019-01-16T00:26:18.125Z,16.40
2019-01-16T00:29:07.148Z,16.17
2019-01-16T00:31:56.127Z,13.88
2019-01-16T00:34:45.144Z,11.95
2019-01-16T00:37:34.179Z,15.87
2019-01-16T00:40:24.670Z,14.97
2019-01-16T00:43:04.867Z,12.63
2019-01-16T00:45:53.977Z,10.82
2019-01-16T00:48:43.078Z,21.40
2019-01-16T00:51:32.444Z,11.63
2019-01-16T00:54:21.589Z,12.13
2019-01-16T00:57:10.569Z,11.95
2019-01-16T00:59:59.616Z,16.50
2019-01-16T01:02:49.888Z,9.33
2019-01-16T01:05:33.617Z,8.98
2019-01-16T01:08:23.162Z,18.47
2019-01-16T01:11:12.432Z,15.20
2019-01-16T01:14:01.577Z,16.67
2019-01-16T01:16:50.667Z,17.70
2019-01-16T01:19:39.782Z,11.78
2019-01-16T01:22:24.867Z,16.40
2019-01-16T01:25:13.994Z,11.65
2019-01-16T01:28:04.624Z,10.32
2019-01-16T01:30:53.612Z,11.03
2019-01-16T01:33:41.256Z,11.78
2019-01-16T01:36:25.954Z,13.45
2019-01-16T01:39:14.913Z,10.90
2019-01-16T01:42:03.984Z,9.88
2019-01-16T01:44:53.170Z,17.62
2019-01-16T01:47:42.157Z,12.18
2019-01-16T01:50:31.395Z,10.23
2019-01-16T01:53:09.652Z,13.65
2019-01-16T01:55:58.871Z,14.13
2019-01-16T01:58:48.042Z,13.95
2019-01-16T02:01:37.300Z,14.15
2019-01-16T02:04:26.380Z,13.10
2019-01-16T02:07:15.436Z,10.53
2019-01-16T02:10:05.816Z,24.30
2019-01-16T02:12:57.560Z,8.18
2019-01-16T02:15:46.636Z,5.45
2019-01-16T02:18:35.696Z,13.30
2019-01-16T02:21:24.876Z,12.55
2019-01-16T02:24:13.862Z,12.97
2019-01-16T02:27:03.041Z,9.83
2019-01-16T02:29:48.462Z,18.87
2019-01-16T02:32:37.571Z,10.78
2019-01-16T02:35:26.821Z,13.70
2019-01-16T02:38:15.860Z,9.17
2019-01-16T02:40:56.474Z,9.03
2019-01-16T02:43:45.663Z,7.10
2019-01-16T02:46:34.821Z,7.45
2019-01-16T02:49:24.065Z,10.00
2019-01-16T02:52:06.205Z,9.35
2019-01-16T02:54:56.847Z,6.05
2019-01-16T02:57:33.288Z,8.23
2019-01-16T03:00:23.315Z,3.90
2019-01-16T03:03:08.141Z,8.35
2019-01-16T03:05:48.028Z,7.10
2019-01-16T03:08:26.254Z,5.05
2019-01-16T03:11:12.932Z,6.53
2019-01-16T03:14:03.167Z,10.78
2019-01-16T03:16:52.381Z,4.42
2019-01-16T03:19:36.228Z,3.50
2019-01-16T03:22:25.505Z,5.05
2019-01-16T03:25:11.140Z,5.45
2019-01-16T03:27:56.106Z,5.10
2019-01-16T03:30:43.054Z,6.58
2019-01-16T03:33:26.989Z,7.40
2019-01-16T03:36:15.994Z,4.50
2019-01-16T03:39:05.013Z,4.40
2019-01-16T03:41:49.969Z,7.97
2019-01-16T03:44:28.377Z,5.00
2019-01-16T03:47:11.200Z,3.47
2019-01-16T03:50:00.221Z,3.87
2019-01-16T03:52:49.367Z,7.63
2019-01-16T03:55:38.431Z,4.77
2019-01-16T03:58:21.219Z,4.33
2019-01-16T04:01:10.152Z,5.17
2019-01-16T04:03:59.087Z,4.53
2019-01-16T04:06:48.204Z,4.67
2019-01-16T04:09:37.273Z,4.35
2019-01-16T04:12:26.543Z,3.80
2019-01-16T04:15:15.748Z,3.45
2019-01-16T04:18:04.928Z,5.35
2019-01-16T04:20:54.115Z,3.70
2019-01-16T04:23:43.137Z,5.50
2019-01-16T04:26:32.207Z,3.13
2019-01-16T04:29:21.485Z,3.35
2019-01-16T04:32:10.457Z,6.20
2019-01-16T04:34:59.519Z,7.12
2019-01-16T04:37:48.566Z,3.80
2019-01-16T04:40:32.605Z,4.10
2019-01-16T04:43:21.618Z,3.40
2019-01-16T04:46:10.665Z,5.40
2019-01-16T04:48:51.157Z,4.12
2019-01-16T04:51:35.980Z,6.33
2019-01-16T04:54:20.242Z,4.43
2019-01-16T04:57:09.425Z,8.70
2019-01-16T04:59:58.438Z,6.10
2019-01-16T05:02:47.624Z,3.43
2019-01-16T05:05:36.598Z,4.70
2019-01-16T05:08:19.616Z,7.77
2019-01-16T05:11:08.625Z,3.80
2019-01-16T05:13:57.690Z,4.40
2019-01-16T05:16:38.565Z,4.62
2019-01-16T05:19:26.716Z,4.20
2019-01-16T05:22:08.886Z,8.25
2019-01-16T05:24:51.024Z,7.70
2019-01-16T05:27:40.184Z,3.90
2019-01-16T05:30:25.021Z,4.37
2019-01-16T05:33:03.687Z,5.43
2019-01-16T05:35:52.755Z,7.45
2019-01-16T05:38:38.601Z,5.85
2019-01-16T05:41:27.744Z,7.97
2019-01-16T05:44:16.086Z,11.63
2019-01-16T05:46:59.625Z,9.13
2019-01-16T05:49:49.959Z,6.80
2019-01-16T05:52:39.108Z,7.55
2019-01-16T05:55:28.324Z,6.67
2019-01-16T05:58:17.320Z,6.08
2019-01-16T06:01:06.462Z,8.77
2019-01-16T06:03:55.807Z,7.57
2019-01-16T06:06:44.916Z,7.97
2019-01-16T06:09:34.384Z,11.68
2019-01-16T06:12:26.558Z,11.07
2019-01-16T06:15:15.562Z,14.33
2019-01-16T06:18:04.995Z,10.20
2019-01-16T06:20:54.007Z,8.08
2019-01-16T06:23:35.654Z,12.37
2019-01-16T06:26:24.792Z,8.50
2019-01-16T06:29:14.225Z,6.57
2019-01-16T06:32:01.328Z,12.40
2019-01-16T06:34:39.549Z,11.22
2019-01-16T06:37:28.105Z,9.60
2019-01-16T06:40:04.800Z,10.40
2019-01-16T06:42:53.829Z,31.03
2019-01-16T06:45:38.236Z,27.87
2019-01-16T06:48:21.075Z,34.97
2019-01-16T06:51:10.285Z,39.07
2019-01-16T06:53:59.384Z,33.37
2019-01-16T06:56:48.446Z,33.83
2019-01-16T06:59:27.159Z,41.70
2019-01-16T07:02:11.603Z,56.05
2019-01-16T07:05:00.877Z,41.87
2019-01-16T07:07:49.934Z,37.00
2019-01-16T07:10:37.065Z,26.20
2019-01-16T07:13:17.922Z,22.50
2019-01-16T07:16:00.686Z,16.23
2019-01-16T07:18:50.208Z,16.48
2019-01-16T07:21:39.297Z,16.50
2019-01-16T07:24:28.536Z,12.13
2019-01-16T07:27:17.698Z,17.33
2019-01-16T07:30:05.318Z,17.40
2019-01-16T07:32:54.491Z,16.85
2019-01-16T07:35:43.640Z,20.85
2019-01-16T07:38:34.002Z,28.00
2019-01-16T07:41:24.097Z,31.40
2019-01-16T07:44:13.261Z,23.70
2019-01-16T07:47:03.407Z,44.30
2019-01-16T07:49:52.477Z,39.87
2019-01-16T07:52:43.032Z,34.58
2019-01-16T07:55:32.095Z,24.12
2019-01-16T07:58:15.996Z,19.48
2019-01-16T08:01:06.010Z,25.37
2019-01-16T08:03:55.600Z,18.52
2019-01-16T08:06:44.739Z,16.20
2019-01-16T08:09:34.901Z,28.67
2019-01-16T08:12:25.969Z,19.07
2019-01-16T08:15:15.287Z,22.50
2019-01-16T08:17:56.245Z,17.03
2019-01-16T08:20:45.266Z,16.17
2019-01-16T08:23:34.395Z,23.80
2019-01-16T08:26:23.113Z,20.48
2019-01-16T08:29:12.789Z,19.23
2019-01-16T08:32:03.058Z,16.23
2019-01-16T08:34:54.025Z,23.25
2019-01-16T08:37:34.380Z,19.13
2019-01-16T08:40:24.584Z,20.50
2019-01-16T08:43:13.847Z,18.23
2019-01-16T08:45:55.157Z,24.67
2019-01-16T08:48:44.222Z,26.42
2019-01-16T08:51:33.495Z,28.05
2019-01-16T08:54:22.687Z,23.83
2019-01-16T08:57:09.898Z,25.25
2019-01-16T08:59:53.485Z,26.65
2019-01-16T09:02:36.846Z,15.95
2019-01-16T09:05:26.945Z,20.20
2019-01-16T09:08:13.054Z,17.20
2019-01-16T09:11:02.355Z,23.90
2019-01-16T09:13:46.631Z,24.72
2019-01-16T09:16:35.985Z,21.62
2019-01-16T09:19:27.026Z,22.63
2019-01-16T09:22:09.299Z,38.13
2019-01-16T09:25:00.797Z,36.23
2019-01-16T09:27:48.922Z,49.05
2019-01-16T09:30:39.974Z,89.83
2019-01-16T09:33:29.105Z,56.30
2019-01-16T09:36:18.107Z,79.63
2019-01-16T09:39:07.419Z,67.62
2019-01-16T09:41:56.555Z,62.83
2019-01-16T09:44:34.795Z,40.75
2019-01-16T09:47:21.971Z,37.93
2019-01-16T09:50:11.071Z,30.72
2019-01-16T09:53:00.350Z,21.15
2019-01-16T09:55:49.516Z,21.33
2019-01-16T09:58:32.594Z,28.30
2019-01-16T10:01:21.797Z,22.67
2019-01-16T10:04:10.930Z,31.00
2019-01-16T10:07:00.220Z,22.42
2019-01-16T10:09:50.085Z,27.87
2019-01-16T10:12:39.808Z,32.95
2019-01-16T10:15:28.845Z,25.05
2019-01-16T10:18:11.362Z,33.50
2019-01-16T10:20:55.687Z,35.27
2019-01-16T10:23:38.031Z,27.32
2019-01-16T10:26:27.208Z,33.02
2019-01-16T10:29:16.963Z,39.60
2019-01-16T10:32:06.623Z,33.33
2019-01-16T10:34:48.804Z,35.03
2019-01-16T10:37:29.997Z,43.13
2019-01-16T10:40:16.267Z,37.00
2019-01-16T10:42:57.595Z,42.30
2019-01-16T10:45:46.651Z,38.42
2019-01-16T10:48:37.012Z,41.30
2019-01-16T10:51:22.412Z,36.10
2019-01-16T10:54:03.014Z,42.27
2019-01-16T10:56:53.418Z,43.53
2019-01-16T10:59:41.116Z,40.88
2019-01-16T11:02:30.511Z,47.58
2019-01-16T11:05:09.555Z,44.08
2019-01-16T11:07:58.759Z,39.48
2019-01-16T11:10:47.817Z,47.73
2019-01-16T11:13:33.184Z,29.80
2019-01-16T11:16:22.278Z,39.57
2019-01-16T11:19:11.477Z,35.10
2019-01-16T11:22:00.619Z,38.23
2019-01-16T11:24:49.815Z,32.73
2019-01-16T11:27:32.999Z,48.52
2019-01-16T11:30:22.236Z,34.95
2019-01-16T11:33:00.624Z,36.08
2019-01-16T11:35:45.239Z,44.03
2019-01-16T11:38:34.500Z,44.77
2019-01-16T11:41:23.815Z,34.63
2019-01-16T11:44:13.988Z,38.73
2019-01-16T11:47:03.160Z,40.97
2019-01-16T11:49:52.365Z,43.30
2019-01-16T11:52:41.410Z,42.03
2019-01-16T11:55:30.788Z,38.78
2019-01-16T11:58:20.486Z,37.23
2019-01-16T12:01:11.167Z,37.67
2019-01-16T12:04:12.419Z,31.45
2019-01-16T12:07:01.623Z,36.00
2019-01-16T12:09:50.952Z,32.10
2019-01-16T12:12:34.633Z,38.95
2019-01-16T12:15:25.039Z,37.40
2019-01-16T12:18:14.497Z,55.90
2019-01-16T12:21:03.673Z,41.90
2019-01-16T12:23:49.996Z,41.20
2019-01-16T12:26:39.388Z,30.03
2019-01-16T12:29:21.799Z,32.83
2019-01-16T12:32:12.986Z,26.57
2019-01-16T12:35:02.259Z,34.83
2019-01-16T12:37:42.038Z,27.50
2019-01-16T12:40:32.230Z,37.63
2019-01-16T12:43:23.882Z,37.55
2019-01-16T12:46:13.019Z,29.50
2019-01-16T12:49:02.024Z,26.33
2019-01-16T12:51:51.265Z,34.90
2019-01-16T12:54:40.428Z,36.30
2019-01-16T12:57:31.070Z,25.80
2019-01-16T13:00:20.071Z,28.23
2019-01-16T13:03:05.203Z,30.55
2019-01-16T13:05:48.914Z,24.80
2019-01-16T13:08:31.950Z,25.30
2019-01-16T13:11:21.074Z,27.40
2019-01-16T13:14:10.610Z,21.10
2019-01-16T13:16:59.775Z,25.60
2019-01-16T13:19:51.149Z,25.65
2019-01-16T13:22:29.831Z,30.52
2019-01-16T13:25:18.973Z,35.70
2019-01-16T13:28:08.098Z,43.20
2019-01-16T13:30:57.290Z,34.25
2019-01-16T13:33:36.169Z,34.30
2019-01-16T13:36:18.350Z,33.40
2019-01-16T13:38:56.254Z,34.37
2019-01-16T13:41:40.031Z,35.67
2019-01-16T13:44:29.016Z,40.67
2019-01-16T13:47:14.852Z,58.77
2019-01-16T13:49:56.130Z,56.20
2019-01-16T13:52:47.153Z,43.03
2019-01-16T13:55:36.271Z,46.27
2019-01-16T13:58:25.510Z,37.13
2019-01-16T14:01:15.220Z,37.40
2019-01-16T14:04:04.392Z,32.83
2019-01-16T14:06:53.491Z,28.77
2019-01-16T14:09:42.665Z,42.33
2019-01-16T14:12:31.930Z,37.33
2019-01-16T14:15:34.787Z,38.40
2019-01-16T14:18:26.510Z,37.85
2019-01-16T14:21:15.791Z,39.10
2019-01-16T14:23:58.659Z,40.70
2019-01-16T14:26:48.358Z,30.72
2019-01-16T14:29:37.514Z,29.75
2019-01-16T14:32:26.975Z,40.88
2019-01-16T14:35:16.076Z,45.05
2019-01-16T14:38:05.345Z,33.38
2019-01-16T14:40:54.607Z,28.95
2019-01-16T14:43:37.740Z,40.38
2019-01-16T14:46:20.435Z,39.87
2019-01-16T14:49:09.646Z,50.85
2019-01-16T14:51:59.736Z,41.37
2019-01-16T14:54:49.059Z,44.00
2019-01-16T14:57:38.407Z,43.48
2019-01-16T15:00:28.254Z,45.75
2019-01-16T15:03:17.395Z,43.40
2019-01-16T15:06:05.559Z,44.67
2019-01-16T15:08:52.402Z,51.80
2019-01-16T15:11:41.515Z,46.48
2019-01-16T15:14:20.384Z,54.23
2019-01-16T15:17:07.135Z,50.40
2019-01-16T15:19:56.314Z,49.20
2019-01-16T15:22:45.678Z,37.23
2019-01-16T15:25:34.966Z,49.75
2019-01-16T15:28:24.243Z,47.75
2019-01-16T15:31:13.556Z,60.83
2019-01-16T15:33:52.130Z,62.78
2019-01-16T15:36:41.431Z,57.45
2019-01-16T15:39:22.769Z,61.60
2019-01-16T15:42:12.071Z,66.42
2019-01-16T15:44:54.881Z,58.87
2019-01-16T15:47:35.838Z,61.77
2019-01-16T15:50:25.994Z,65.37
2019-01-16T15:53:15.234Z,50.67
2019-01-16T15:56:00.834Z,59.35
2019-01-16T15:58:50.274Z,56.65
2019-01-16T16:01:39.596Z,48.08
2019-01-16T16:04:19.116Z,53.60
2019-01-16T16:07:08.323Z,58.45
2019-01-16T16:09:57.727Z,53.43
2019-01-16T16:12:46.923Z,63.42
2019-01-16T16:15:35.276Z,53.35
2019-01-16T16:18:24.609Z,47.63
2019-01-16T16:21:06.679Z,45.60
2019-01-16T16:23:45.903Z,55.65
2019-01-16T16:26:35.195Z,58.85
2019-01-16T16:29:26.167Z,51.05
2019-01-16T16:32:15.488Z,61.58
2019-01-16T16:35:25.357Z,50.23
2019-01-16T16:38:21.105Z,49.90
2019-01-16T16:41:25.367Z,42.47
2019-01-16T16:44:46.893Z,50.83
2019-01-16T16:48:22.250Z,60.97
2019-01-16T16:51:44.400Z,46.90
2019-01-16T16:55:23.050Z,46.53
2019-01-16T16:58:07.831Z,52.55
2019-01-16T17:01:31.971Z,49.45
2019-01-16T17:05:27.972Z,43.85
2019-01-16T17:09:12.080Z,51.50
2019-01-16T17:13:01.621Z,32.00
2019-01-16T17:16:42.920Z,57.55
2019-01-16T17:20:40.855Z,63.20
2019-01-16T17:24:27.295Z,79.60
2019-01-16T17:28:22.794Z,52.17
2019-01-16T17:32:11.794Z,77.43
2019-01-16T17:36:07.951Z,59.05
2019-01-16T17:39:02.486Z,69.82
2019-01-16T17:41:41.297Z,67.33
2019-01-16T17:44:31.096Z,62.40
2019-01-16T17:47:44.526Z,57.70
2019-01-16T17:51:45.056Z,55.83
2019-01-16T17:55:30.097Z,64.25
2019-01-16T18:01:21.955Z,61.23
2019-01-16T18:04:16.206Z,67.83
2019-01-16T18:07:05.393Z,60.88
2019-01-16T18:09:53.179Z,58.78
2019-01-16T18:12:42.358Z,59.75
2019-01-16T18:15:31.777Z,62.13
2019-01-16T18:18:21.878Z,58.03
2019-01-16T18:21:03.939Z,65.32
2019-01-16T18:23:43.506Z,60.90
2019-01-16T18:26:38.744Z,53.38
2019-01-16T18:29:23.777Z,29.75
2019-01-16T18:32:13.257Z,67.67
2019-01-16T18:35:02.696Z,49.45
2019-01-16T18:37:54.759Z,55.78
2019-01-16T18:40:51.139Z,57.62
2019-01-16T18:44:09.937Z,65.70
2019-01-16T18:47:37.175Z,76.07
2019-01-16T18:50:47.488Z,48.45
2019-01-16T18:53:41.162Z,60.50
2019-01-16T18:56:30.708Z,78.97
2019-01-16T18:59:20.077Z,63.55
2019-01-16T19:02:11.530Z,66.75
2019-01-16T19:04:55.678Z,63.83
2019-01-16T19:07:44.968Z,58.33
2019-01-16T19:10:27.567Z,61.18
2019-01-16T19:13:16.839Z,63.58
2019-01-16T19:16:01.647Z,60.30
2019-01-16T19:18:51.084Z,51.37
2019-01-16T19:21:36.656Z,72.55
2019-01-16T19:24:26.151Z,59.85
2019-01-16T19:27:15.559Z,64.30
2019-01-16T19:30:04.872Z,63.60
2019-01-16T19:32:49.556Z,52.38
2019-01-16T19:35:38.806Z,56.00
2019-01-16T19:38:28.092Z,54.53
2019-01-16T19:41:17.401Z,43.15
2019-01-16T19:44:07.384Z,76.82
2019-01-16T19:46:52.430Z,66.30
2019-01-16T19:49:41.677Z,58.00
2019-01-16T19:52:31.097Z,71.85
2019-01-16T19:55:21.921Z,52.98
2019-01-16T19:58:11.144Z,61.18
2019-01-16T20:00:53.280Z,69.85
2019-01-16T20:03:42.736Z,71.97
2019-01-16T20:06:31.956Z,55.58
2019-01-16T20:09:21.336Z,60.78
2019-01-16T20:12:12.716Z,60.67
2019-01-16T20:14:49.937Z,62.83
2019-01-16T20:17:36.157Z,48.48
2019-01-16T20:20:24.966Z,60.17
2019-01-16T20:23:14.357Z,76.28
2019-01-16T20:26:04.640Z,66.30
2019-01-16T20:28:50.892Z,65.87
2019-01-16T20:31:40.210Z,65.03
2019-01-16T20:34:25.315Z,57.87
2019-01-16T20:37:15.312Z,61.30
2019-01-16T20:40:04.593Z,66.33
2019-01-16T20:42:54.055Z,65.97
2019-01-16T20:45:43.335Z,62.67
2019-01-16T20:48:41.764Z,74.70
2019-01-16T20:51:32.742Z,63.58
2019-01-16T20:54:22.051Z,63.38
2019-01-16T20:57:03.677Z,66.17
2019-01-16T20:59:56.597Z,45.17
2019-01-16T21:02:45.971Z,68.50
2019-01-16T21:06:16.079Z,75.93
2019-01-16T21:09:46.398Z,68.47
2019-01-16T21:13:19.266Z,66.92
2019-01-16T21:16:35.680Z,67.27
2019-01-16T21:19:59.684Z,59.18
2019-01-16T21:23:29.146Z,58.83
2019-01-16T21:26:35.267Z,63.00
2019-01-16T21:29:39.256Z,57.90
2019-01-16T21:32:35.249Z,54.88
2019-01-16T21:35:39.045Z,45.37
2019-01-16T21:38:18.477Z,62.63
2019-01-16T21:41:11.275Z,57.57
2019-01-16T21:44:04.448Z,68.70
2019-01-16T21:46:46.147Z,72.90
2019-01-16T21:49:30.636Z,65.00
2019-01-16T21:52:20.149Z,63.78
2019-01-16T21:54:57.003Z,68.87
2019-01-16T21:57:46.204Z,59.77
2019-01-16T22:00:36.544Z,47.60
2019-01-16T22:03:26.437Z,61.13
2019-01-16T22:06:15.897Z,58.50
2019-01-16T22:09:05.206Z,57.33
2019-01-16T22:11:54.837Z,58.00
2019-01-16T22:14:34.191Z,56.95
2019-01-16T22:17:23.566Z,53.20
2019-01-16T22:20:12.952Z,41.28
2019-01-16T22:22:58.240Z,58.02
2019-01-16T22:25:40.597Z,37.40
2019-01-16T22:28:27.770Z,52.67
2019-01-16T22:31:17.004Z,61.67
2019-01-16T22:34:06.254Z,40.05
2019-01-16T22:36:56.159Z,54.18
2019-01-16T22:39:45.567Z,48.00
2019-01-16T22:42:41.123Z,52.63
2019-01-16T22:45:43.443Z,53.75
2019-01-16T22:48:35.406Z,52.03
2019-01-16T22:51:24.724Z,57.23
2019-01-16T22:54:13.916Z,62.33
2019-01-16T22:56:58.122Z,60.70
2019-01-16T22:59:47.315Z,42.08
2019-01-16T23:02:36.517Z,49.35
2019-01-16T23:05:26.021Z,46.63
2019-01-16T23:08:05.514Z,39.95
2019-01-16T23:10:52.276Z,40.08
2019-01-16T23:13:41.268Z,29.27
2019-01-16T23:16:30.716Z,38.08
2019-01-16T23:19:21.416Z,23.15
2019-01-16T23:22:10.434Z,55.80
2019-01-16T23:24:56.988Z,34.93
2019-01-16T23:27:46.496Z,41.30
2019-01-16T23:30:28.292Z,65.12
2019-01-16T23:33:17.451Z,27.85
2019-01-16T23:35:55.119Z,40.43
2019-01-16T23:38:43.026Z,41.48
2019-01-16T23:41:32.316Z,46.20
2019-01-16T23:44:21.554Z,32.38
2019-01-16T23:47:05.928Z,37.00
2019-01-16T23:49:55.096Z,38.67
2019-01-16T23:52:33.845Z,38.67
2019-01-16T23:55:23.495Z,33.65
2019-01-16T23:58:01.489Z,32.93
